Time;durP1;ratioP1;P1;durP2;ratioP2;P2;SDS_P1;SDS_P2;PMS_P1;PMS_P2;Temp;Humidity;BMP_temperature;BMP_pressure;BME280_temperature;BME280_humidity;BME280_pressure;Samples;Min_cycle;Max_cycle;Signal;HPM_P1;HPM_P2
2022/03/18 00:00:31;;;;;;;51.15;24.30;;;;;;;;;;5051713;27;100245;-71
2022/03/18 00:02:58;;;;;;;50.05;22.08;;;;;;;;;;5035059;27;100150;-70
2022/03/18 00:05:25;;;;;;;49.25;22.45;;;;;;;;;;5034112;27;100329;-70
2022/03/18 00:07:52;;;;;;;47.80;22.65;;;;;;;;;;5017115;27;100868;-71
2022/03/18 00:10:19;;;;;;;49.40;23.67;;;;;;;;;;5034149;27;101090;-71
2022/03/18 00:12:47;;;;;;;52.25;23.10;;;;;;;;;;5051879;27;100028;-71
2022/03/18 00:15:14;;;;;;;49.95;21.92;;;;;;;;;;5034121;27;100005;-70
2022/03/18 00:17:41;;;;;;;47.95;23.65;;;;;;;;;;4994488;27;100860;-71
2022/03/18 00:20:09;;;;;;;47.47;21.10;;;;;;;;;;5013414;27;101715;-70
2022/03/18 00:22:36;;;;;;;45.05;22.10;;;;;;;;;;5031085;27;100199;-70
2022/03/18 00:25:04;;;;;;;52.75;23.33;;;;;;;;;;5028974;27;100010;-70
2022/03/18 00:27:31;;;;;;;43.05;20.63;;;;;;;;;;4997070;27;100339;-70
2022/03/18 00:29:58;;;;;;;47.60;20.65;;;;;;;;;;4996611;27;100705;-70
2022/03/18 00:32:26;;;;;;;47.83;22.80;;;;;;;;;;5013709;27;100237;-70
2022/03/18 00:34:53;;;;;;;45.55;20.35;;;;;;;;;;5032088;27;102425;-71
2022/03/18 00:37:19;;;;;;;51.95;24.05;;;;;;;;;;5013517;27;100190;-71
2022/03/18 00:39:46;;;;;;;40.08;19.08;;;;;;;;;;5031258;27;103917;-71
2022/03/18 00:42:13;;;;;;;45.40;21.42;;;;;;;;;;5029774;27;100271;-71
2022/03/18 00:44:40;;;;;;;50.05;22.58;;;;;;;;;;5031632;27;100128;-71
2022/03/18 00:52:39;;;;;;;51.58;23.70;;;;;;;;;;5016403;27;100088;-71
2022/03/18 00:55:06;;;;;;;47.72;22.63;;;;;;;;;;5013869;27;100075;-70
2022/03/18 00:57:33;;;;;;;57.40;25.27;;;;;;;;;;4980194;27;100323;-71
2022/03/18 01:00:01;;;;;;;43.72;21.45;;;;;;;;;;4996497;27;100603;-71
2022/03/18 01:02:27;;;;;;;50.88;22.75;;;;;;;;;;5013508;27;100122;-70
2022/03/18 01:04:54;;;;;;;46.95;23.65;;;;;;;;;;5013530;27;100066;-71
2022/03/18 01:07:21;;;;;;;49.95;22.48;;;;;;;;;;5012748;27;100352;-71
2022/03/18 01:09:48;;;;;;;54.15;23.58;;;;;;;;;;5012880;27;100777;-71
2022/03/18 01:12:15;;;;;;;46.05;21.73;;;;;;;;;;5030568;27;100213;-72
2022/03/18 01:14:42;;;;;;;51.75;23.15;;;;;;;;;;5013545;27;100226;-71
2022/03/18 01:17:09;;;;;;;56.35;25.02;;;;;;;;;;5012013;27;100311;-71
2022/03/18 01:19:36;;;;;;;54.97;24.60;;;;;;;;;;4993569;27;101456;-71
2022/03/18 01:22:02;;;;;;;68.88;29.48;;;;;;;;;;5012419;27;100184;-71
2022/03/18 01:24:29;;;;;;;70.65;31.70;;;;;;;;;;5013542;27;100131;-71
2022/03/18 01:26:56;;;;;;;60.28;26.45;;;;;;;;;;5030441;27;101539;-71
2022/03/18 01:29:23;;;;;;;47.55;22.52;;;;;;;;;;5030707;27;100633;-71
2022/03/18 01:31:49;;;;;;;54.40;24.95;;;;;;;;;;5012815;27;100160;-71
2022/03/18 01:34:16;;;;;;;64.47;26.52;;;;;;;;;;5033057;27;100045;-71
2022/03/18 01:36:43;;;;;;;66.75;27.90;;;;;;;;;;4999369;27;101333;-71
2022/03/18 01:39:10;;;;;;;65.60;29.83;;;;;;;;;;5016043;27;100586;-71
2022/03/18 01:41:37;;;;;;;59.00;26.92;;;;;;;;;;5034308;27;100171;-72
2022/03/18 01:44:03;;;;;;;55.85;25.33;;;;;;;;;;5016877;27;100138;-71
2022/03/18 01:46:30;;;;;;;57.85;26.42;;;;;;;;;;5005773;27;100291;-71
2022/03/18 01:48:57;;;;;;;55.53;24.20;;;;;;;;;;5034051;27;100657;-71
2022/03/18 01:51:24;;;;;;;52.83;24.23;;;;;;;;;;5034278;27;99974;-71
2022/03/18 01:54:44;;;;;;;62.20;26.70;;;;;;;;;;5033357;27;101992;-71
2022/03/18 01:56:37;;;;;;;56.80;24.73;;;;;;;;;;5043572;27;101627;-71
2022/03/18 01:59:05;;;;;;;59.53;26.77;;;;;;;;;;4998602;27;100740;-71
2022/03/18 02:01:32;;;;;;;51.88;22.92;;;;;;;;;;5014898;27;100306;-72
2022/03/18 02:03:59;;;;;;;60.00;26.35;;;;;;;;;;5028774;27;100193;-71
2022/03/18 02:06:25;;;;;;;67.05;30.27;;;;;;;;;;5020705;27;102392;-71
2022/03/18 02:08:52;;;;;;;48.88;23.83;;;;;;;;;;5001648;27;100688;-71
2022/03/18 02:11:19;;;;;;;53.53;26.15;;;;;;;;;;5035431;27;102676;-71
2022/03/18 02:13:49;;;;;;;54.25;25.15;;;;;;;;;;5015305;27;100126;-71
2022/03/18 02:16:16;;;;;;;56.47;26.52;;;;;;;;;;5014380;27;100286;-71
2022/03/18 02:18:43;;;;;;;53.05;22.92;;;;;;;;;;5014578;27;100711;-71
2022/03/18 02:21:10;;;;;;;57.70;27.08;;;;;;;;;;5014624;27;100289;-71
2022/03/18 02:23:37;;;;;;;52.47;24.85;;;;;;;;;;4997826;27;100172;-71
2022/03/18 02:26:03;;;;;;;48.20;23.10;;;;;;;;;;5014644;27;100232;-71
2022/03/18 02:28:30;;;;;;;54.42;23.27;;;;;;;;;;4999984;27;101046;-72
2022/03/18 02:30:57;;;;;;;54.03;22.23;;;;;;;;;;5034958;27;100250;-71
2022/03/18 02:33:24;;;;;;;47.40;20.15;;;;;;;;;;5035210;27;100172;-71
2022/03/18 02:35:53;;;;;;;46.55;22.40;;;;;;;;;;5034355;27;100277;-71
2022/03/18 02:38:20;;;;;;;46.58;21.83;;;;;;;;;;5017839;27;100621;-71
2022/03/18 02:40:47;;;;;;;53.20;22.40;;;;;;;;;;5052496;27;100473;-72
2022/03/18 02:43:14;;;;;;;44.58;22.38;;;;;;;;;;5032118;27;103365;-71
2022/03/18 02:45:40;;;;;;;42.65;19.98;;;;;;;;;;5030442;27;100464;-72
2022/03/18 02:48:07;;;;;;;44.22;19.42;;;;;;;;;;5014037;27;101180;-71
2022/03/18 02:50:35;;;;;;;44.00;18.80;;;;;;;;;;5014488;27;100447;-71
2022/03/18 02:53:02;;;;;;;42.08;19.63;;;;;;;;;;5013904;27;100091;-72
2022/03/18 02:55:29;;;;;;;43.47;21.65;;;;;;;;;;5013555;27;100349;-71
2022/03/18 02:57:56;;;;;;;52.38;22.05;;;;;;;;;;5014098;27;100658;-71
2022/03/18 03:00:25;;;;;;;38.67;17.65;;;;;;;;;;5031861;27;100191;-71
2022/03/18 03:02:52;;;;;;;54.65;24.52;;;;;;;;;;5014023;27;100395;-72
2022/03/18 03:08:04;;;;;;;47.20;20.95;;;;;;;;;;5002528;27;100675;-71
2022/03/18 03:10:33;;;;;;;46.35;21.60;;;;;;;;;;5013574;27;100233;-71
2022/03/18 03:13:01;;;;;;;42.28;19.50;;;;;;;;;;5032333;27;100133;-71
2022/03/18 03:15:28;;;;;;;40.50;19.85;;;;;;;;;;4979211;27;100768;-71
2022/03/18 03:17:55;;;;;;;39.47;19.20;;;;;;;;;;5031506;27;100554;-71
2022/03/18 03:20:22;;;;;;;40.22;19.55;;;;;;;;;;5014129;27;100267;-71
2022/03/18 03:22:49;;;;;;;48.10;22.75;;;;;;;;;;5030708;27;100296;-71
2022/03/18 03:25:16;;;;;;;42.83;20.65;;;;;;;;;;5014285;27;100331;-71
2022/03/18 03:27:43;;;;;;;39.03;20.58;;;;;;;;;;5015036;27;100644;-71
2022/03/18 03:30:10;;;;;;;42.38;19.45;;;;;;;;;;5014808;27;100205;-72
2022/03/18 03:32:37;;;;;;;66.47;26.17;;;;;;;;;;5033516;27;99919;-71
2022/03/18 03:35:05;;;;;;;46.67;21.25;;;;;;;;;;5032071;27;100105;-71
2022/03/18 03:37:32;;;;;;;46.72;22.27;;;;;;;;;;5032165;27;100706;-71
2022/03/18 03:39:59;;;;;;;46.42;21.67;;;;;;;;;;4998699;27;101354;-71
2022/03/18 03:42:25;;;;;;;43.90;21.10;;;;;;;;;;5014970;28;100106;-71
2022/03/18 03:44:52;;;;;;;54.65;22.67;;;;;;;;;;4997337;27;101700;-71
2022/03/18 03:47:20;;;;;;;52.70;22.50;;;;;;;;;;5014291;27;100679;-72
2022/03/18 03:49:47;;;;;;;57.65;25.88;;;;;;;;;;5032748;27;100027;-71
2022/03/18 03:52:13;;;;;;;51.75;21.95;;;;;;;;;;5041328;27;99858;-71
2022/03/18 03:54:40;;;;;;;55.33;23.70;;;;;;;;;;5016205;27;102250;-71
2022/03/18 03:57:07;;;;;;;49.22;21.92;;;;;;;;;;5012913;27;102848;-71
2022/03/18 03:59:34;;;;;;;60.35;25.33;;;;;;;;;;4996848;27;100299;-71
2022/03/18 04:02:02;;;;;;;50.50;22.15;;;;;;;;;;5013969;28;100213;-71
2022/03/18 04:04:31;;;;;;;54.97;24.10;;;;;;;;;;5034291;27;100764;-71
2022/03/18 04:06:58;;;;;;;80.40;27.75;;;;;;;;;;5017063;27;100604;-72
2022/03/18 04:09:25;;;;;;;87.07;30.13;;;;;;;;;;5034455;27;100157;-71
2022/03/18 04:11:52;;;;;;;96.70;34.33;;;;;;;;;;5007961;27;100035;-71
2022/03/18 04:14:20;;;;;;;97.88;34.40;;;;;;;;;;5042572;27;100278;-71
2022/03/18 04:16:47;;;;;;;77.40;28.45;;;;;;;;;;5034332;27;100687;-71
2022/03/18 04:19:14;;;;;;;65.90;25.15;;;;;;;;;;5034488;27;100085;-71
2022/03/18 04:21:41;;;;;;;62.80;25.13;;;;;;;;;;5051767;27;100047;-71
2022/03/18 04:24:08;;;;;;;52.38;21.70;;;;;;;;;;4999581;27;100403;-69
2022/03/18 04:26:40;;;;;;;57.90;25.17;;;;;;;;;;5034597;27;101140;-69
2022/03/18 04:29:12;;;;;;;51.67;23.20;;;;;;;;;;5051348;27;100027;-70
2022/03/18 04:31:40;;;;;;;46.03;21.45;;;;;;;;;;5017022;27;100230;-70
2022/03/18 04:34:06;;;;;;;49.20;21.40;;;;;;;;;;5051203;27;100393;-70
2022/03/18 04:36:33;;;;;;;46.95;21.13;;;;;;;;;;5051025;27;101742;-70
2022/03/18 04:39:01;;;;;;;52.25;20.63;;;;;;;;;;5032582;27;101422;-70
2022/03/18 04:41:28;;;;;;;47.45;20.38;;;;;;;;;;5032093;27;101061;-71
2022/03/18 04:43:55;;;;;;;50.67;22.17;;;;;;;;;;5031191;27;100237;-71
2022/03/18 04:46:21;;;;;;;48.35;20.70;;;;;;;;;;5030547;27;101759;-72
2022/03/18 04:48:48;;;;;;;44.28;21.13;;;;;;;;;;5012927;27;100083;-70
2022/03/18 04:51:15;;;;;;;52.53;21.58;;;;;;;;;;4997375;27;100168;-71
2022/03/18 04:53:42;;;;;;;58.60;24.40;;;;;;;;;;5012017;28;102259;-71
2022/03/18 04:57:15;;;;;;;56.33;22.35;;;;;;;;;;5030718;27;100605;-71
2022/03/18 04:58:56;;;;;;;49.38;21.25;;;;;;;;;;5023097;27;99847;-72
2022/03/18 05:01:23;;;;;;;57.90;23.58;;;;;;;;;;5032927;27;100147;-70
2022/03/18 05:03:50;;;;;;;52.47;23.05;;;;;;;;;;5033312;27;100724;-71
2022/03/18 05:06:17;;;;;;;48.40;19.98;;;;;;;;;;5033486;27;100594;-70
2022/03/18 05:08:44;;;;;;;59.45;22.75;;;;;;;;;;5018478;27;100136;-71
2022/03/18 05:11:12;;;;;;;46.83;20.98;;;;;;;;;;5020313;27;100304;-71
2022/03/18 05:13:40;;;;;;;44.47;19.63;;;;;;;;;;5026743;27;100316;-70
2022/03/18 05:16:06;;;;;;;54.65;22.10;;;;;;;;;;5032018;27;100607;-71
2022/03/18 05:18:34;;;;;;;47.83;21.50;;;;;;;;;;5036937;27;100138;-75
2022/03/18 05:21:01;;;;;;;51.10;20.73;;;;;;;;;;5055136;27;100125;-70
2022/03/18 05:23:28;;;;;;;47.35;21.42;;;;;;;;;;5036328;27;100203;-71
2022/03/18 05:25:54;;;;;;;48.40;22.00;;;;;;;;;;5037464;27;100539;-70
2022/03/18 05:28:21;;;;;;;51.17;20.88;;;;;;;;;;5034373;27;100156;-71
2022/03/18 05:30:48;;;;;;;42.33;20.10;;;;;;;;;;5016794;27;100193;-71
2022/03/18 05:33:15;;;;;;;36.33;18.27;;;;;;;;;;5034169;27;100266;-70
2022/03/18 05:35:42;;;;;;;41.58;19.05;;;;;;;;;;5016145;27;100526;-71
2022/03/18 05:38:09;;;;;;;37.35;19.13;;;;;;;;;;5016244;27;100054;-71
2022/03/18 05:40:35;;;;;;;40.25;18.25;;;;;;;;;;5016323;27;100217;-71
2022/03/18 05:43:02;;;;;;;37.50;17.92;;;;;;;;;;5041750;27;100191;-71
2022/03/18 05:45:29;;;;;;;38.25;18.45;;;;;;;;;;5018796;27;101223;-71
2022/03/18 05:47:56;;;;;;;46.13;18.55;;;;;;;;;;5054378;27;100156;-71
2022/03/18 05:50:23;;;;;;;36.70;17.55;;;;;;;;;;5039296;27;100028;-71
2022/03/18 05:52:50;;;;;;;35.05;18.70;;;;;;;;;;4999262;27;101409;-76
2022/03/18 05:55:17;;;;;;;52.67;20.67;;;;;;;;;;4999662;27;100683;-70
2022/03/18 05:57:45;;;;;;;38.53;18.42;;;;;;;;;;5034325;27;100342;-71
2022/03/18 06:00:14;;;;;;;33.25;15.45;;;;;;;;;;5029913;27;100101;-71
2022/03/18 06:02:41;;;;;;;41.72;19.02;;;;;;;;;;5011312;28;100731;-71
2022/03/18 06:05:09;;;;;;;41.42;20.50;;;;;;;;;;4977165;28;100634;-71
2022/03/18 06:07:36;;;;;;;43.08;19.27;;;;;;;;;;5013148;28;100161;-71
2022/03/18 06:12:50;;;;;;;41.47;20.00;;;;;;;;;;5012451;28;100317;-71
2022/03/18 06:15:16;;;;;;;48.80;21.58;;;;;;;;;;5012527;28;101762;-71
2022/03/18 06:17:43;;;;;;;43.00;19.58;;;;;;;;;;5013945;28;100115;-72
2022/03/18 06:20:10;;;;;;;43.45;20.38;;;;;;;;;;5012473;28;100036;-71
2022/03/18 06:22:37;;;;;;;41.28;18.92;;;;;;;;;;5013944;28;100295;-71
2022/03/18 06:25:04;;;;;;;45.15;20.25;;;;;;;;;;5013016;28;100550;-71
2022/03/18 06:27:32;;;;;;;45.00;21.00;;;;;;;;;;4979409;28;100223;-71
2022/03/18 06:30:00;;;;;;;44.45;21.20;;;;;;;;;;5013991;28;100117;-71
2022/03/18 06:32:27;;;;;;;47.72;22.25;;;;;;;;;;5012336;28;100224;-72
2022/03/18 06:34:53;;;;;;;37.85;18.40;;;;;;;;;;5012412;28;100555;-72
2022/03/18 06:37:21;;;;;;;33.17;16.90;;;;;;;;;;4996206;28;100176;-72
2022/03/18 06:39:47;;;;;;;39.08;19.15;;;;;;;;;;4995941;28;100125;-72
2022/03/18 06:42:14;;;;;;;35.20;17.25;;;;;;;;;;4995869;28;100172;-72
2022/03/18 06:44:41;;;;;;;41.17;21.08;;;;;;;;;;5013799;28;100570;-71
2022/03/18 06:47:09;;;;;;;40.28;19.02;;;;;;;;;;5013577;28;99990;-71
2022/03/18 06:49:36;;;;;;;37.92;18.48;;;;;;;;;;5013688;28;100079;-72
2022/03/18 06:52:04;;;;;;;42.90;19.15;;;;;;;;;;5013022;28;100160;-72
2022/03/18 06:54:31;;;;;;;37.38;19.23;;;;;;;;;;5013126;28;101663;-71
2022/03/18 06:56:58;;;;;;;46.15;22.75;;;;;;;;;;5012416;28;100102;-72
2022/03/18 06:59:24;;;;;;;37.05;18.60;;;;;;;;;;4979542;28;100005;-72
2022/03/18 07:01:53;;;;;;;37.85;17.83;;;;;;;;;;5011826;28;100163;-72
2022/03/18 07:04:23;;;;;;;45.88;22.27;;;;;;;;;;5011441;28;101119;-70
2022/03/18 07:06:51;;;;;;;41.88;20.05;;;;;;;;;;4996058;28;100181;-71
2022/03/18 07:09:17;;;;;;;45.72;21.35;;;;;;;;;;5013739;28;100123;-71
2022/03/18 07:11:44;;;;;;;49.33;23.25;;;;;;;;;;5013202;28;100165;-70
2022/03/18 07:14:11;;;;;;;47.42;23.77;;;;;;;;;;5002780;28;100872;-71
2022/03/18 07:19:23;;;;;;;44.10;21.13;;;;;;;;;;4997733;28;100164;-71
2022/03/18 07:21:50;;;;;;;40.30;20.48;;;;;;;;;;4994962;28;100247;-71
2022/03/18 07:24:18;;;;;;;46.85;18.50;;;;;;;;;;5011671;28;102386;-71
2022/03/18 07:26:45;;;;;;;45.13;20.40;;;;;;;;;;4994807;28;100230;-72
2022/03/18 07:29:11;;;;;;;43.08;20.48;;;;;;;;;;5013168;28;100010;-71
2022/03/18 07:31:38;;;;;;;36.63;19.52;;;;;;;;;;5012149;28;100214;-71
2022/03/18 07:34:05;;;;;;;44.00;20.92;;;;;;;;;;5013011;28;100663;-72
2022/03/18 07:36:32;;;;;;;33.83;16.60;;;;;;;;;;4995124;28;100158;-71
2022/03/18 07:38:59;;;;;;;34.97;17.13;;;;;;;;;;5012943;28;100116;-71
2022/03/18 07:41:26;;;;;;;38.25;19.98;;;;;;;;;;5011017;28;100840;-71
2022/03/18 07:43:52;;;;;;;42.58;21.27;;;;;;;;;;5012047;28;100599;-70
2022/03/18 07:46:19;;;;;;;35.80;18.08;;;;;;;;;;5012891;28;100001;-72
2022/03/18 07:48:46;;;;;;;50.38;23.10;;;;;;;;;;5012833;28;100162;-71
2022/03/18 07:51:13;;;;;;;45.38;19.70;;;;;;;;;;4993961;28;100476;-71
2022/03/18 07:53:40;;;;;;;37.25;16.38;;;;;;;;;;4994731;28;100598;-71
2022/03/18 07:56:06;;;;;;;37.05;18.00;;;;;;;;;;5012503;28;100125;-70
2022/03/18 07:58:33;;;;;;;44.53;20.73;;;;;;;;;;5012566;28;99957;-71
2022/03/18 08:01:00;;;;;;;40.70;18.92;;;;;;;;;;5018470;27;100394;-71
2022/03/18 08:03:27;;;;;;;54.47;25.70;;;;;;;;;;5018110;27;100594;-71
2022/03/18 08:05:54;;;;;;;38.42;20.10;;;;;;;;;;5052461;27;100061;-72
2022/03/18 08:08:21;;;;;;;38.00;19.05;;;;;;;;;;5052104;27;99993;-72
2022/03/18 08:10:48;;;;;;;44.60;21.08;;;;;;;;;;5052573;27;100785;-72
2022/03/18 08:13:15;;;;;;;50.35;23.58;;;;;;;;;;5034588;27;100593;-71
2022/03/18 08:15:44;;;;;;;45.45;22.63;;;;;;;;;;5017823;27;100073;-72
2022/03/18 08:18:11;;;;;;;47.10;20.98;;;;;;;;;;5018854;27;100042;-72
2022/03/18 08:20:41;;;;;;;48.13;24.13;;;;;;;;;;5052275;27;100211;-72
2022/03/18 08:23:08;;;;;;;49.08;23.55;;;;;;;;;;5034849;27;100591;-72
2022/03/18 08:25:35;;;;;;;46.95;21.85;;;;;;;;;;5001743;27;100060;-72
2022/03/18 08:28:02;;;;;;;47.13;20.45;;;;;;;;;;5052382;27;100131;-72
2022/03/18 08:30:29;;;;;;;38.65;20.65;;;;;;;;;;5051502;27;100197;-72
2022/03/18 08:32:56;;;;;;;48.30;23.52;;;;;;;;;;5052060;27;100625;-72
2022/03/18 08:35:23;;;;;;;41.75;19.15;;;;;;;;;;5052483;27;100202;-72
2022/03/18 08:37:56;;;;;;;40.10;21.90;;;;;;;;;;5034326;27;100154;-72
2022/03/18 08:40:32;;;;;;;34.58;16.48;;;;;;;;;;5035113;27;100781;-72
2022/03/18 08:43:00;;;;;;;47.42;21.13;;;;;;;;;;5035183;27;100615;-72
2022/03/18 08:45:27;;;;;;;35.15;19.30;;;;;;;;;;5037892;27;100181;-72
2022/03/18 08:47:54;;;;;;;43.60;19.50;;;;;;;;;;5038541;27;100008;-71
2022/03/18 08:50:22;;;;;;;44.17;21.42;;;;;;;;;;5055482;27;100297;-71
2022/03/18 08:52:50;;;;;;;51.65;23.15;;;;;;;;;;5037281;27;100661;-71
2022/03/18 08:55:17;;;;;;;49.55;23.73;;;;;;;;;;4987928;27;100109;-73
2022/03/18 08:57:44;;;;;;;49.10;23.75;;;;;;;;;;5017818;27;100518;-71
2022/03/18 09:00:14;;;;;;;47.47;20.88;;;;;;;;;;5017289;28;100528;-71
2022/03/18 09:02:41;;;;;;;51.65;22.92;;;;;;;;;;5015578;27;100730;-72
2022/03/18 09:05:09;;;;;;;45.83;21.88;;;;;;;;;;5035415;27;100167;-72
2022/03/18 09:07:36;;;;;;;48.83;27.02;;;;;;;;;;5017551;27;100112;-72
2022/03/18 09:10:04;;;;;;;46.05;22.20;;;;;;;;;;5034827;27;100284;-70
2022/03/18 09:12:31;;;;;;;46.15;22.27;;;;;;;;;;5017722;28;100506;-71
2022/03/18 09:14:58;;;;;;;45.78;23.15;;;;;;;;;;5016926;27;100040;-71
2022/03/18 09:17:25;;;;;;;39.70;21.30;;;;;;;;;;5017429;28;100023;-71
2022/03/18 09:19:52;;;;;;;47.35;22.83;;;;;;;;;;5016406;27;101385;-73
2022/03/18 09:22:19;;;;;;;39.17;21.08;;;;;;;;;;5016727;27;100701;-71
2022/03/18 09:24:46;;;;;;;51.60;24.88;;;;;;;;;;5017531;27;100152;-71
2022/03/18 09:27:14;;;;;;;46.78;22.23;;;;;;;;;;5035010;27;100147;-71
2022/03/18 09:29:41;;;;;;;43.80;21.20;;;;;;;;;;4984082;27;100475;-72
2022/03/18 09:32:08;;;;;;;44.67;23.55;;;;;;;;;;4983961;27;100573;-71
2022/03/18 09:34:35;;;;;;;51.10;24.95;;;;;;;;;;5000514;27;100148;-71
2022/03/18 09:37:02;;;;;;;55.22;26.50;;;;;;;;;;5001036;28;103978;-70
2022/03/18 09:39:29;;;;;;;52.92;24.35;;;;;;;;;;5000353;28;100383;-70
2022/03/18 09:42:02;;;;;;;45.58;21.42;;;;;;;;;;5034276;27;100621;-70
2022/03/18 09:44:36;;;;;;;51.88;22.70;;;;;;;;;;5034217;27;100104;-71
2022/03/18 09:47:04;;;;;;;50.40;24.55;;;;;;;;;;5052589;27;99921;-70
2022/03/18 09:49:31;;;;;;;38.42;19.33;;;;;;;;;;5012617;27;100856;-71
2022/03/18 09:51:58;;;;;;;47.65;23.20;;;;;;;;;;5016036;27;101118;-71
2022/03/18 09:54:26;;;;;;;44.75;21.10;;;;;;;;;;4996952;28;100105;-71
2022/03/18 09:56:53;;;;;;;49.35;25.17;;;;;;;;;;5032975;27;100113;-71
2022/03/18 09:59:22;;;;;;;41.90;21.30;;;;;;;;;;5016439;27;100373;-71
2022/03/18 10:01:48;;;;;;;49.15;22.45;;;;;;;;;;4999522;28;101243;-70
2022/03/18 10:04:15;;;;;;;46.88;21.02;;;;;;;;;;5034285;27;100042;-70
2022/03/18 10:06:43;;;;;;;47.72;22.90;;;;;;;;;;5034090;27;100057;-70
2022/03/18 10:09:16;;;;;;;41.80;22.08;;;;;;;;;;5015727;27;100695;-70
2022/03/18 10:11:46;;;;;;;38.88;19.02;;;;;;;;;;5034205;27;100550;-70
2022/03/18 10:14:15;;;;;;;41.80;19.35;;;;;;;;;;5000287;27;100115;-70
2022/03/18 10:16:46;;;;;;;39.58;19.73;;;;;;;;;;4999849;27;100053;-71
2022/03/18 10:19:21;;;;;;;42.33;20.20;;;;;;;;;;5016231;27;100191;-70
2022/03/18 10:21:55;;;;;;;47.45;22.75;;;;;;;;;;5016776;27;100635;-70
2022/03/18 10:24:23;;;;;;;54.10;20.80;;;;;;;;;;5018365;27;100823;-70
2022/03/18 10:26:51;;;;;;;41.03;21.35;;;;;;;;;;5036811;27;100206;-71
2022/03/18 10:29:18;;;;;;;35.65;19.38;;;;;;;;;;5019581;27;100327;-71
2022/03/18 10:32:00;;;;;;;40.38;19.42;;;;;;;;;;5035951;27;100557;-71
2022/03/18 10:37:22;;;;;;;39.72;20.77;;;;;;;;;;5054478;27;100069;-72
2022/03/18 10:39:52;;;;;;;33.22;17.38;;;;;;;;;;5035532;27;100548;-72
2022/03/18 10:42:20;;;;;;;33.25;19.42;;;;;;;;;;5053882;27;100527;-72
2022/03/18 10:44:51;;;;;;;38.30;20.95;;;;;;;;;;5018729;27;100061;-72
2022/03/18 10:47:36;;;;;;;35.15;19.83;;;;;;;;;;5054297;27;100101;-71
2022/03/18 10:50:09;;;;;;;;;;;;;;;;;;5035618;27;100361;-73
2022/03/18 10:52:38;;;;;;;37.60;17.87;;;;;;;;;;5053845;27;101215;-70
2022/03/18 10:55:39;;;;;;;36.85;19.38;;;;;;;;;;5054233;27;100044;-71
2022/03/18 10:58:08;;;;;;;33.25;17.35;;;;;;;;;;5031195;27;100246;-71
2022/03/18 11:00:36;;;;;;;39.47;21.50;;;;;;;;;;5052617;27;100509;-71
2022/03/18 11:03:03;;;;;;;40.05;21.42;;;;;;;;;;5035501;27;100687;-73
2022/03/18 11:05:39;;;;;;;39.00;18.73;;;;;;;;;;5018919;27;100115;-71
2022/03/18 11:08:09;;;;;;;41.03;22.45;;;;;;;;;;5036033;27;100160;-71
2022/03/18 11:13:27;;;;;;;41.97;23.08;;;;;;;;;;5037858;27;100700;-70
2022/03/18 11:15:54;;;;;;;45.53;22.83;;;;;;;;;;5035763;27;100293;-71
2022/03/18 11:18:21;;;;;;;39.92;21.25;;;;;;;;;;5019220;27;100078;-71
2022/03/18 11:20:50;;;;;;;46.17;24.70;;;;;;;;;;5016171;27;100387;-71
2022/03/18 11:23:18;;;;;;;43.78;24.92;;;;;;;;;;5015592;28;100541;-71
2022/03/18 11:25:48;;;;;;;52.28;26.00;;;;;;;;;;4998499;27;100143;-71
2022/03/18 11:28:16;;;;;;;55.05;27.48;;;;;;;;;;4982427;27;100190;-71
2022/03/18 11:30:47;;;;;;;42.05;20.42;;;;;;;;;;4981932;27;100383;-71
2022/03/18 11:33:20;;;;;;;46.65;24.38;;;;;;;;;;5015378;27;100706;-71
2022/03/18 11:35:52;;;;;;;37.60;19.95;;;;;;;;;;5015790;27;100035;-71
2022/03/18 11:38:25;;;;;;;42.78;21.65;;;;;;;;;;5033165;27;99943;-71
2022/03/18 11:41:00;;;;;;;42.72;21.95;;;;;;;;;;4998315;27;100317;-71
2022/03/18 11:43:32;;;;;;;42.70;20.25;;;;;;;;;;5001107;27;101153;-71
2022/03/18 11:46:13;;;;;;;47.95;23.75;;;;;;;;;;5033206;27;99883;-71
2022/03/18 11:49:05;;;;;;;49.85;22.42;;;;;;;;;;5033203;27;100442;-71
2022/03/18 11:51:36;;;;;;;40.78;22.52;;;;;;;;;;5014502;27;100358;-72
2022/03/18 11:54:12;;;;;;;37.50;21.23;;;;;;;;;;5031629;27;100900;-71
2022/03/18 11:56:39;;;;;;;42.53;21.50;;;;;;;;;;5015662;27;99847;-72
2022/03/18 11:59:27;;;;;;;38.65;20.73;;;;;;;;;;5033331;27;99870;-71
2022/03/18 12:02:08;;;;;;;38.90;20.15;;;;;;;;;;5032247;27;100809;-72
2022/03/18 12:04:43;;;;;;;36.92;19.50;;;;;;;;;;5014949;28;100745;-71
2022/03/18 12:07:14;;;;;;;36.90;20.77;;;;;;;;;;5032727;27;99760;-71
2022/03/18 12:10:06;;;;;;;35.40;18.95;;;;;;;;;;5015721;28;99919;-71
2022/03/18 12:12:41;;;;;;;37.38;18.40;;;;;;;;;;5031213;27;100724;-72
2022/03/18 12:15:09;;;;;;;37.70;20.30;;;;;;;;;;5014626;28;100580;-71
2022/03/18 12:17:52;;;;;;;34.80;18.83;;;;;;;;;;5031209;27;100104;-71
2022/03/18 12:20:34;;;;;;;30.50;15.55;;;;;;;;;;5027380;27;100205;-73
2022/03/18 12:23:06;;;;;;;36.90;19.80;;;;;;;;;;5014536;27;100254;-71
2022/03/18 12:25:36;;;;;;;34.55;18.83;;;;;;;;;;5032334;27;101157;-71
2022/03/18 12:28:03;;;;;;;34.65;17.30;;;;;;;;;;5013841;27;100186;-72
2022/03/18 12:30:30;;;;;;;35.72;17.88;;;;;;;;;;4998839;27;99947;-71
2022/03/18 12:33:01;;;;;;;30.02;16.67;;;;;;;;;;4997819;28;101913;-71
2022/03/18 12:35:31;;;;;;;32.40;16.00;;;;;;;;;;5014500;27;101230;-72
2022/03/18 12:38:04;;;;;;;24.20;12.95;;;;;;;;;;4998660;28;100049;-71
2022/03/18 12:40:31;;;;;;;26.90;14.07;;;;;;;;;;4998213;28;100104;-72
2022/03/18 12:43:00;;;;;;;29.63;13.43;;;;;;;;;;5031783;27;100301;-71
2022/03/18 12:45:29;;;;;;;21.73;11.80;;;;;;;;;;4998388;28;100748;-71
2022/03/18 12:47:57;;;;;;;24.58;13.43;;;;;;;;;;5014983;27;100060;-72
2022/03/18 12:50:28;;;;;;;29.65;16.20;;;;;;;;;;5032584;27;99916;-71
2022/03/18 12:52:56;;;;;;;25.20;11.48;;;;;;;;;;5030871;27;101051;-71
2022/03/18 12:55:24;;;;;;;30.55;14.93;;;;;;;;;;5014148;27;100650;-72
2022/03/18 12:57:57;;;;;;;26.38;13.88;;;;;;;;;;5014515;28;99941;-71
2022/03/18 13:00:24;;;;;;;25.67;14.10;;;;;;;;;;5032599;27;100021;-71
2022/03/18 13:03:28;;;;;;;;;;;;;;;;;;5000483;28;100287;-71
2022/03/18 13:06:09;;;;;;;31.80;16.70;;;;;;;;;;5032060;27;100585;-71
2022/03/18 13:08:36;;;;;;;40.47;20.35;;;;;;;;;;5013984;28;100147;-71
2022/03/18 13:11:06;;;;;;;30.80;16.50;;;;;;;;;;5014091;27;101369;-71
2022/03/18 13:13:33;;;;;;;38.15;20.00;;;;;;;;;;5012563;28;102440;-72
2022/03/18 13:16:04;;;;;;;42.13;19.58;;;;;;;;;;4997100;28;101090;-71
2022/03/18 13:18:32;;;;;;;26.77;14.88;;;;;;;;;;5031583;27;99906;-71
2022/03/18 13:21:03;;;;;;;36.05;19.70;;;;;;;;;;4980945;28;100144;-71
2022/03/18 13:23:30;;;;;;;40.08;20.42;;;;;;;;;;5013669;27;101098;-71
2022/03/18 13:25:57;;;;;;;37.05;20.52;;;;;;;;;;4997515;28;103648;-70
2022/03/18 13:28:26;;;;;;;39.42;19.83;;;;;;;;;;5014476;27;100129;-70
2022/03/18 13:33:42;;;;;;;31.17;17.10;;;;;;;;;;5034361;27;100809;-70
2022/03/18 13:36:32;;;;;;;29.33;15.82;;;;;;;;;;5034823;27;100590;-72
2022/03/18 13:39:01;;;;;;;32.47;18.08;;;;;;;;;;5035207;27;100090;-72
2022/03/18 13:41:48;;;;;;;35.88;19.58;;;;;;;;;;5035026;27;100102;-71
2022/03/18 13:44:18;;;;;;;31.85;17.88;;;;;;;;;;5034612;27;100347;-72
2022/03/18 13:46:57;;;;;;;39.78;19.35;;;;;;;;;;5014925;27;100631;-71
2022/03/18 13:49:24;;;;;;;35.88;18.75;;;;;;;;;;5013912;28;100207;-72
2022/03/18 13:52:04;;;;;;;37.75;18.85;;;;;;;;;;5033977;27;101430;-71
2022/03/18 13:54:45;;;;;;;38.10;19.50;;;;;;;;;;5016841;28;100325;-71
2022/03/18 13:57:12;;;;;;;29.60;16.05;;;;;;;;;;5000632;27;100611;-70
2022/03/18 13:59:49;;;;;;;36.25;18.08;;;;;;;;;;5033941;27;99785;-71
2022/03/18 14:02:23;;;;;;;32.65;16.67;;;;;;;;;;5016356;27;100245;-72
2022/03/18 14:04:51;;;;;;;36.10;18.10;;;;;;;;;;5000355;28;100539;-71
2022/03/18 14:07:18;;;;;;;37.97;19.70;;;;;;;;;;5032762;27;100809;-71
2022/03/18 14:09:58;;;;;;;34.15;18.25;;;;;;;;;;5016807;27;100047;-72
2022/03/18 14:12:25;;;;;;;37.40;18.77;;;;;;;;;;5000977;28;99888;-71
2022/03/18 14:15:16;;;;;;;26.02;14.93;;;;;;;;;;5016369;27;100149;-72
2022/03/18 14:18:06;;;;;;;27.65;15.02;;;;;;;;;;5034637;27;100646;-72
2022/03/18 14:20:52;;;;;;;32.75;17.05;;;;;;;;;;5034655;27;99848;-72
2022/03/18 14:23:29;;;;;;;29.60;16.17;;;;;;;;;;5034153;27;100147;-72
2022/03/18 14:25:57;;;;;;;22.90;11.98;;;;;;;;;;5039927;27;101474;-72
2022/03/18 14:28:28;;;;;;;32.15;17.25;;;;;;;;;;5019337;27;100638;-71
2022/03/18 14:30:56;;;;;;;30.42;17.15;;;;;;;;;;5054712;27;100227;-71
2022/03/18 14:33:24;;;;;;;27.33;15.30;;;;;;;;;;5036546;27;100573;-70
2022/03/18 14:35:52;;;;;;;30.02;16.65;;;;;;;;;;5019359;27;100246;-71
2022/03/18 14:38:20;;;;;;;29.95;16.45;;;;;;;;;;5054084;27;100704;-71